Cold Bay, AK

8:52 PM AKDT on September 04, 2015 (GMT -0800)
Cold Bay | | Change Station
CLOSE
Current Station
Airport
Location: Cold Bay,
Elevation: 102 ft
Nearby Weather Stations

Elev 102 ft 55.22 °N, 162.73 °W | Updated 28 minutes ago

Light Rain
Light Rain
53 °F
Feels Like 53 °F
N
8
Wind Variable Wind from West

Today
High -- | Low -- °F
--% Chance of Precip.
Yesterday
High -- | Low -- °F
Precip. -- in
8:02 AM 9:36 PM
Waning Gibbous, 52% visible
Pressure 30.03 in
Visibility 8.0 miles
Clouds Scattered Clouds 900 ft
Scattered Clouds 1400 ft
Overcast 2300 ft
Dew Point 52 °F
Humidity 96%
Rainfall 0.12 in
Snow Depth Not available.
UV 0 out of 12
Pollen Not available.
Air Quality Not available.
Flu Activity Not available.
SPECI PACD 050424Z AUTO 28007KT 8SM -RA SCT009 SCT014 OVC023 12/11 A3003 RMK AO2 RAB05E16B23 P0000 T01170111 TSNO
Pressure 30.03 in
Visibility 8.0 miles
Clouds Scattered Clouds 900 ft
Scattered Clouds 1400 ft
Overcast 2300 ft
Dew Point 52 °F
Humidity 96%
Rainfall 0.12 in
Snow Depth Not available.
UV 0 out of 12
Pollen Not available.
Air Quality Not available.
Flu Activity Not available.
SPECI PACD 050424Z AUTO 28007KT 8SM -RA SCT009 SCT014 OVC023 12/11 A3003 RMK AO2 RAB05E16B23 P0000 T01170111 TSNO

10-Day Weather Forecast

×

Almanac

Astronomy

Sep. 04, 2015 Rise Set
Actual Time
Civil Twilight
Nautical Twilight
Astronomical Twilight
Moon
Length of Visible Light
Length of Day
Tomorrow will be .
, % of the Moon is Illuminated

Today's Extremes

State Highs State Lows

Community

WunderPhotos

Upload Photos

1,852,426 photos uploaded!

WunderBlogs® & News

Nearby

Air Quality

  Air Quality AQ Index Pollutant
Not available.

Snow Depth

Station Depth Elevation

Earthquake Activity

City Distance Mag. Time & Date
Minimum magnitude displayed is 2.5.

Coastal Water Temperatures

Place Temperature

Stations

Nearby Weather Stations

Station Location Temp. Windchill Dew Point Humidity Wind Precip. Elev Updated Type